Terminal Aerodrome Forecast
Issued by NWS Riverton, WY

Home | Current Version | Previous Version | Text Only | Print | Product List | Glossary On
Versions: 1 2 3 4 5 6 7 8 9 10 11 12 13 14 15 16 17
928
FTUS45 KRIW 060529
TAFRIW
TAF
KRIW 060529Z 0606/0706 VRB05KT P6SM SKC
     FM062100 05005KT P6SM SCT100 BKN150
     FM070300 05007KT P6SM SCT025 BKN040=

USA.gov is the U.S. government's official web portal to all federal, state and local government web resources and services.